createdAt,value
2018-12-05T00:02:21.266Z,2.50
2018-12-05T00:04:56.071Z,2.73
2018-12-05T00:07:28.976Z,2.77
2018-12-05T00:10:03.886Z,2.50
2018-12-05T00:12:36.682Z,3.20
2018-12-05T00:15:09.482Z,3.03
2018-12-05T00:17:43.933Z,2.50
2018-12-05T00:20:19.057Z,2.30
2018-12-05T00:22:52.066Z,2.50
2018-12-05T00:25:26.491Z,2.83
2018-12-05T00:27:59.402Z,2.73
2018-12-05T00:30:31.693Z,2.47
2018-12-05T00:33:04.333Z,3.10
2018-12-05T00:35:36.590Z,2.40
2018-12-05T00:38:08.984Z,2.47
2018-12-05T00:40:41.143Z,2.63
2018-12-05T00:43:13.839Z,2.40
2018-12-05T00:45:48.484Z,3.10
2018-12-05T00:48:23.627Z,3.17
2018-12-05T00:50:58.301Z,2.47
2018-12-05T00:53:33.581Z,2.70
2018-12-05T00:56:06.616Z,2.57
2018-12-05T00:58:38.896Z,2.90
2018-12-05T01:01:11.189Z,3.17
2018-12-05T01:03:46.080Z,2.33
2018-12-05T01:06:19.139Z,2.80
2018-12-05T01:08:54.364Z,2.73
2018-12-05T01:11:26.653Z,2.50
2018-12-05T01:13:58.938Z,2.47
2018-12-05T01:16:33.400Z,3.33
2018-12-05T01:19:05.918Z,3.57
2018-12-05T01:21:38.333Z,3.27
2018-12-05T01:24:10.622Z,3.20
2018-12-05T01:26:45.376Z,3.03
2018-12-05T01:29:18.129Z,3.23
2018-12-05T01:31:53.136Z,3.17
2018-12-05T01:34:24.190Z,3.10
2018-12-05T01:36:58.676Z,3.07
2018-12-05T01:39:31.386Z,3.43
2018-12-05T01:42:03.966Z,3.43
2018-12-05T01:44:39.315Z,2.53
2018-12-05T01:47:14.592Z,3.57
2018-12-05T01:49:47.441Z,2.97
2018-12-05T01:52:18.171Z,3.20
2018-12-05T01:54:50.367Z,2.93
2018-12-05T01:57:25.001Z,3.27
2018-12-05T02:00:00.327Z,4.17
2018-12-05T02:02:33.094Z,3.43
2018-12-05T02:05:07.542Z,3.33
2018-12-05T02:07:40.355Z,3.30
2018-12-05T02:10:15.220Z,3.70
2018-12-05T02:12:48.205Z,3.90
2018-12-05T02:15:22.853Z,3.50
2018-12-05T03:26:52.030Z,2.63
2018-12-05T03:29:26.786Z,3.53
2018-12-05T03:31:57.446Z,3.17
2018-12-05T03:34:30.113Z,2.80
2018-12-05T03:37:02.297Z,3.17
2018-12-05T03:39:34.466Z,2.47
2018-12-05T03:42:09.433Z,3.20
2018-12-05T03:44:44.180Z,3.93
2018-12-05T03:47:17.134Z,2.70
2018-12-05T03:50:02.606Z,3.17
2018-12-05T03:52:38.079Z,3.23
2018-12-05T03:55:11.651Z,2.90
2018-12-05T03:57:44.231Z,3.57
2018-12-05T04:00:16.631Z,3.67
2018-12-05T04:02:48.848Z,3.83
2018-12-05T04:05:23.394Z,3.50
2018-12-05T04:07:54.350Z,3.30
2018-12-05T04:10:27.829Z,4.43
2018-12-05T04:13:00.274Z,2.97
2018-12-05T04:15:34.704Z,3.83
2018-12-05T04:18:07.473Z,3.23
2018-12-05T04:20:42.409Z,3.33
2018-12-05T04:23:17.463Z,3.90
2018-12-05T04:25:50.233Z,3.60
2018-12-05T04:28:25.014Z,4.37
2018-12-05T04:30:57.897Z,3.90
2018-12-05T04:33:32.373Z,3.83
2018-12-05T04:36:04.578Z,4.27
2018-12-05T04:38:36.853Z,4.07
2018-12-05T04:41:11.507Z,3.03
2018-12-05T04:43:44.518Z,3.47
2018-12-05T04:46:19.130Z,3.37
2018-12-05T04:48:54.410Z,3.70
2018-12-05T04:51:27.089Z,4.97
2018-12-05T04:54:00.427Z,4.30
2018-12-05T04:56:33.019Z,4.20
2018-12-05T04:59:07.681Z,4.10
2018-12-05T05:01:38.326Z,4.23
2018-12-05T05:04:13.146Z,4.03
2018-12-05T05:06:46.140Z,3.90
2018-12-05T05:09:27.069Z,5.23
2018-12-05T05:12:01.838Z,4.13
2018-12-05T05:14:36.460Z,3.67
2018-12-05T05:17:09.173Z,4.23
2018-12-05T05:19:43.838Z,4.57
2018-12-05T05:22:18.767Z,3.50
2018-12-05T05:24:53.603Z,3.43
2018-12-05T05:27:28.977Z,4.67
2018-12-05T05:32:36.058Z,4.27
2018-12-05T05:35:08.398Z,4.23
2018-12-05T05:37:40.862Z,4.20
2018-12-05T05:40:13.901Z,4.20
2018-12-05T05:42:48.359Z,4.30
2018-12-05T05:45:23.565Z,4.00
2018-12-05T05:47:54.513Z,3.93
2018-12-05T05:50:30.627Z,3.93
2018-12-05T05:53:01.357Z,4.50
2018-12-05T05:55:33.845Z,5.10
2018-12-05T05:58:06.057Z,5.13
2018-12-05T06:00:38.333Z,4.63
2018-12-05T06:03:10.536Z,4.37
2018-12-05T06:05:42.936Z,4.50
2018-12-05T06:08:14.753Z,4.27
2018-12-05T06:10:47.390Z,3.97
2018-12-05T06:13:22.156Z,4.07
2018-12-05T06:15:54.797Z,4.43
2018-12-05T06:18:27.067Z,4.53
2018-12-05T06:21:08.206Z,4.47
2018-12-05T06:23:40.599Z,4.23
2018-12-05T06:26:12.628Z,4.43
2018-12-05T06:28:43.113Z,6.03
2018-12-05T06:31:15.669Z,4.67
2018-12-05T06:33:48.054Z,5.30
2018-12-05T06:36:30.084Z,5.03
2018-12-05T06:39:02.271Z,4.53
2018-12-05T06:41:38.002Z,5.60
2018-12-05T06:44:10.869Z,5.40
2018-12-05T06:46:46.245Z,5.53
2018-12-05T06:49:18.923Z,5.10
2018-12-05T06:51:51.425Z,5.63
2018-12-05T06:54:26.237Z,5.00
2018-12-05T06:56:56.948Z,5.27
2018-12-05T06:59:29.545Z,5.07
2018-12-05T07:02:04.265Z,4.77
2018-12-05T07:04:45.539Z,5.03
2018-12-05T07:07:19.215Z,5.43
2018-12-05T07:09:50.054Z,5.53
2018-12-05T07:12:22.123Z,5.87
2018-12-05T07:14:56.876Z,6.17
2018-12-05T07:17:29.831Z,6.50
2018-12-05T07:20:05.329Z,5.87
2018-12-05T07:22:37.531Z,6.33
2018-12-05T07:25:16.067Z,7.20
2018-12-05T07:27:48.969Z,5.40
2018-12-05T07:30:21.341Z,7.10
2018-12-05T07:32:53.622Z,6.13
2018-12-05T07:35:25.656Z,5.70
2018-12-05T07:38:06.888Z,6.83
2018-12-05T07:40:41.806Z,5.80
2018-12-05T07:43:12.293Z,4.87
2018-12-05T07:45:44.566Z,5.50
2018-12-05T07:48:25.654Z,5.67
2018-12-05T07:51:00.010Z,6.83
2018-12-05T07:53:32.856Z,6.60
2018-12-05T07:56:11.619Z,6.27
2018-12-05T07:58:47.848Z,5.03
2018-12-05T08:01:23.099Z,5.83
2018-12-05T08:03:55.521Z,6.63
2018-12-05T08:06:28.204Z,5.60
2018-12-05T08:09:03.205Z,6.93
2018-12-05T08:11:35.617Z,6.40
2018-12-05T08:14:10.483Z,7.57
2018-12-05T08:16:42.389Z,7.07
2018-12-05T08:19:23.306Z,6.90
2018-12-05T08:21:58.146Z,6.90
2018-12-05T08:24:30.953Z,4.93
2018-12-05T08:27:03.597Z,6.37
2018-12-05T08:29:38.739Z,5.60
2018-12-05T08:32:10.620Z,5.40
2018-12-05T08:34:46.558Z,7.60
2018-12-05T08:37:18.413Z,4.70
2018-12-05T08:39:57.385Z,6.97
2018-12-05T08:42:38.123Z,6.30
2018-12-05T08:45:16.822Z,5.97
2018-12-05T08:47:58.470Z,5.93
2018-12-05T08:50:30.520Z,6.83
2018-12-05T08:53:00.794Z,4.70
2018-12-05T08:55:32.966Z,5.73
2018-12-05T08:58:14.100Z,6.30
2018-12-05T09:00:46.277Z,5.50
2018-12-05T09:03:28.185Z,5.30
2018-12-05T09:06:09.479Z,4.77
2018-12-05T09:08:41.616Z,5.90
2018-12-05T09:11:13.941Z,5.80
2018-12-05T09:13:44.281Z,5.57
2018-12-05T09:16:16.623Z,5.20
2018-12-05T09:18:52.082Z,4.73
2018-12-05T09:21:26.495Z,3.60
2018-12-05T09:24:08.167Z,3.13
2018-12-05T09:26:49.381Z,3.60
2018-12-05T09:29:27.910Z,4.03
2018-12-05T09:32:02.279Z,3.77
2018-12-05T09:34:34.998Z,3.27
2018-12-05T09:39:40.369Z,2.80
2018-12-05T09:42:21.579Z,3.50
2018-12-05T09:44:53.810Z,4.03
2018-12-05T09:47:34.924Z,3.40
2018-12-05T09:50:13.881Z,3.93
2018-12-05T09:52:46.659Z,4.07
2018-12-05T09:55:21.343Z,4.60
2018-12-05T09:57:55.620Z,3.77
2018-12-05T10:00:27.800Z,4.23
2018-12-05T10:03:09.091Z,4.57
2018-12-05T10:05:50.358Z,4.33
2018-12-05T10:08:31.863Z,4.27
2018-12-05T10:11:06.620Z,3.47
2018-12-05T10:13:38.465Z,4.60
2018-12-05T10:16:13.061Z,3.47
2018-12-05T10:18:54.671Z,4.03
2018-12-05T10:21:27.192Z,4.90
2018-12-05T10:23:59.361Z,4.00
2018-12-05T10:26:40.626Z,4.73
2018-12-05T10:29:22.883Z,3.53
2018-12-05T10:31:54.953Z,4.07
2018-12-05T10:34:29.501Z,3.67
2018-12-05T10:37:11.143Z,3.57
2018-12-05T10:39:52.173Z,4.47
2018-12-05T10:47:42.989Z,4.03
2018-12-05T10:50:14.161Z,4.27
2018-12-05T10:52:48.464Z,4.77
2018-12-05T10:55:21.492Z,3.67
2018-12-05T10:57:53.667Z,3.60
2018-12-05T11:00:29.417Z,4.63
2018-12-05T11:03:05.165Z,4.00
2018-12-05T11:05:42.615Z,4.47
2018-12-05T11:08:22.172Z,3.87
2018-12-05T11:11:00.425Z,4.03
2018-12-05T11:13:38.545Z,4.20
2018-12-05T11:16:17.619Z,3.27
2018-12-05T11:18:53.517Z,3.97
2018-12-05T11:21:31.768Z,3.87
2018-12-05T11:24:10.230Z,4.50
2018-12-05T11:26:42.576Z,4.60
2018-12-05T11:29:14.605Z,4.00
2018-12-05T11:31:47.079Z,3.73
2018-12-05T11:34:19.278Z,4.17
2018-12-05T11:36:52.398Z,3.87
2018-12-05T11:39:27.282Z,4.20
2018-12-05T11:41:59.221Z,4.13
2018-12-05T11:44:31.738Z,4.50
2018-12-05T11:47:12.754Z,4.67
2018-12-05T11:49:45.702Z,3.60
2018-12-05T11:52:18.194Z,4.43
2018-12-05T11:54:52.761Z,4.40
2018-12-05T11:57:23.517Z,3.90
2018-12-05T11:59:55.766Z,3.67
2018-12-05T12:02:30.468Z,4.07
2018-12-05T12:05:13.283Z,3.53
2018-12-05T12:07:45.729Z,4.60
2018-12-05T12:10:19.840Z,4.17
2018-12-05T12:13:00.150Z,4.50
2018-12-05T12:15:34.854Z,5.13
2018-12-05T12:18:05.931Z,4.97
2018-12-05T12:20:41.226Z,5.60
2018-12-05T12:23:13.787Z,4.93
2018-12-05T12:25:55.127Z,5.07
2018-12-05T12:28:27.326Z,5.13
2018-12-05T12:31:08.478Z,4.83
2018-12-05T12:33:43.033Z,4.93
2018-12-05T12:36:16.928Z,4.73
2018-12-05T12:38:49.290Z,5.57
2018-12-05T12:41:23.872Z,6.20
2018-12-05T12:44:05.763Z,4.87
2018-12-05T12:46:37.859Z,6.43
2018-12-05T12:49:10.030Z,6.23
2018-12-05T12:51:44.658Z,5.40
2018-12-05T12:54:16.622Z,4.40
2018-12-05T12:56:51.025Z,5.77
2018-12-05T12:59:21.713Z,6.37
2018-12-05T13:01:54.512Z,5.70
2018-12-05T13:04:36.197Z,4.70
2018-12-05T13:07:08.508Z,4.80
2018-12-05T13:09:43.223Z,5.87
2018-12-05T13:12:32.008Z,5.63
2018-12-05T13:15:06.342Z,6.27
2018-12-05T13:17:45.520Z,6.17
2018-12-05T13:20:19.922Z,6.00
2018-12-05T13:22:50.842Z,7.90
2018-12-05T13:25:25.742Z,6.13
2018-12-05T13:28:17.473Z,8.97
2018-12-05T13:30:52.005Z,7.17
2018-12-05T13:33:22.588Z,6.87
2018-12-05T13:35:55.014Z,6.33
2018-12-05T13:38:33.863Z,6.43
2018-12-05T13:41:05.249Z,7.10
2018-12-05T13:43:36.185Z,6.47
2018-12-05T13:46:09.244Z,5.60
2018-12-05T13:48:41.354Z,7.43
2018-12-05T13:51:13.494Z,6.07
2018-12-05T13:53:45.505Z,6.57
2018-12-05T13:56:26.517Z,5.50
2018-12-05T13:59:00.975Z,4.90
2018-12-05T14:01:33.087Z,6.37
2018-12-05T14:04:05.229Z,5.57
2018-12-05T14:06:39.735Z,6.40
2018-12-05T14:09:12.761Z,5.30
2018-12-05T14:11:44.941Z,4.87
2018-12-05T14:14:23.852Z,5.20
2018-12-05T14:17:05.423Z,5.37
2018-12-05T14:19:37.695Z,5.70
2018-12-05T14:22:08.179Z,5.90
2018-12-05T14:24:53.281Z,5.27
2018-12-05T14:27:25.427Z,4.33
2018-12-05T14:30:00.046Z,5.93
2018-12-05T14:32:32.718Z,5.20
2018-12-05T14:35:11.493Z,5.10
2018-12-05T14:37:46.589Z,5.43
2018-12-05T14:40:28.962Z,5.37
2018-12-05T14:43:01.999Z,4.97
2018-12-05T14:45:33.065Z,4.67
2018-12-05T14:51:07.346Z,5.57
2018-12-05T14:53:42.473Z,4.17
2018-12-05T14:56:16.785Z,3.70
2018-12-05T14:58:57.630Z,4.00
2018-12-05T15:01:28.004Z,3.87
2018-12-05T15:04:01.121Z,4.33
2018-12-05T15:06:35.996Z,3.93
2018-12-05T15:09:07.761Z,4.03
2018-12-05T15:11:39.883Z,4.03
2018-12-05T15:14:11.935Z,4.37
2018-12-05T15:16:44.469Z,4.27
2018-12-05T15:19:19.155Z,3.90
2018-12-05T15:21:49.707Z,3.73
2018-12-05T15:24:22.126Z,3.47
2018-12-05T15:26:54.399Z,2.43
2018-12-05T15:29:28.701Z,3.80
2018-12-05T15:31:59.829Z,3.70
2018-12-05T15:34:35.248Z,2.80
2018-12-05T15:37:07.911Z,2.80
2018-12-05T15:39:42.947Z,3.37
2018-12-05T15:42:15.611Z,3.33
2018-12-05T15:45:05.044Z,3.60
2018-12-05T15:47:36.541Z,3.47
2018-12-05T15:50:09.217Z,3.40
2018-12-05T15:52:39.588Z,3.43
2018-12-05T15:55:14.126Z,4.57
2018-12-05T15:57:49.251Z,4.30
2018-12-05T16:00:25.617Z,3.57
2018-12-05T16:02:58.364Z,3.73
2018-12-05T16:05:32.817Z,3.63
2018-12-05T16:08:05.689Z,3.83
2018-12-05T16:10:38.600Z,3.40
2018-12-05T16:13:09.392Z,3.33
2018-12-05T16:15:41.947Z,3.37
2018-12-05T16:18:13.933Z,3.30
2018-12-05T16:20:48.470Z,3.27
2018-12-05T16:23:21.150Z,2.83
2018-12-05T16:25:55.867Z,2.90
2018-12-05T16:28:35.430Z,2.70
2018-12-05T16:31:10.928Z,3.10
2018-12-05T16:33:49.524Z,2.07
2018-12-05T16:36:20.136Z,2.77
2018-12-05T16:41:55.087Z,3.33
2018-12-05T16:44:29.584Z,3.60
2018-12-05T16:47:08.206Z,3.30
2018-12-05T16:49:43.208Z,3.60
2018-12-05T16:52:15.809Z,2.60
2018-12-05T16:54:52.521Z,2.27
2018-12-05T16:57:27.687Z,2.67
2018-12-05T17:02:40.565Z,3.10
2018-12-05T17:05:22.573Z,4.03
2018-12-05T17:08:04.888Z,3.17
2018-12-05T17:10:39.686Z,2.73
2018-12-05T17:13:14.281Z,2.90
2018-12-05T17:15:48.742Z,3.73
2018-12-05T17:18:27.454Z,2.70
2018-12-05T17:21:06.484Z,3.97
2018-12-05T17:23:45.980Z,3.53
2018-12-05T17:26:18.317Z,3.27
2018-12-05T17:28:59.651Z,3.93
2018-12-05T17:31:44.508Z,2.80
2018-12-05T17:34:19.274Z,3.20
2018-12-05T17:36:50.231Z,2.70
2018-12-05T17:39:22.942Z,2.87
2018-12-05T17:41:59.998Z,3.13
2018-12-05T17:44:30.690Z,3.03
2018-12-05T17:47:05.461Z,2.20
2018-12-05T17:49:38.908Z,2.93
2018-12-05T17:52:18.135Z,3.53
2018-12-05T17:54:56.375Z,3.73
2018-12-05T17:57:41.160Z,2.70
2018-12-05T18:03:11.186Z,2.40
2018-12-05T18:05:43.839Z,2.70
2018-12-05T18:08:15.874Z,2.17
2018-12-05T18:10:59.000Z,2.87
2018-12-05T18:13:31.370Z,3.67
2018-12-05T18:16:11.369Z,3.23
2018-12-05T18:18:45.859Z,3.30
2018-12-05T18:21:18.688Z,2.40
2018-12-05T18:23:50.808Z,3.10
2018-12-05T18:26:25.575Z,3.30
2018-12-05T18:29:01.210Z,3.03
2018-12-05T18:31:37.437Z,3.83
2018-12-05T18:34:10.166Z,3.90
2018-12-05T18:36:49.215Z,3.77
2018-12-05T18:39:24.995Z,2.40
2018-12-05T18:42:04.122Z,3.50
2018-12-05T18:44:39.797Z,3.23
2018-12-05T18:47:18.794Z,3.50
2018-12-05T18:49:53.496Z,3.60
2018-12-05T18:52:32.053Z,3.70
2018-12-05T18:55:07.101Z,4.10
2018-12-05T18:57:41.940Z,3.13
2018-12-05T19:00:16.299Z,2.53
2018-12-05T19:02:46.817Z,5.33
2018-12-05T19:05:22.054Z,4.03
2018-12-05T19:08:03.386Z,4.47
2018-12-05T19:10:38.200Z,3.93
2018-12-05T19:13:12.693Z,2.97
2018-12-05T19:15:45.644Z,3.17
2018-12-05T19:18:18.493Z,2.70
2018-12-05T19:20:52.753Z,3.23
2018-12-05T19:23:28.138Z,3.07
2018-12-05T19:26:09.517Z,4.00
2018-12-05T19:28:42.121Z,3.27
2018-12-05T19:31:19.415Z,3.60
2018-12-05T19:33:46.488Z,2.87
2018-12-05T19:36:18.806Z,2.17
2018-12-05T19:38:57.868Z,2.73
2018-12-05T19:41:33.087Z,2.70
2018-12-05T19:44:10.551Z,4.07
2018-12-05T19:46:46.522Z,2.73
2018-12-05T19:49:19.250Z,2.80
2018-12-05T19:51:54.356Z,3.17
2018-12-05T19:54:26.883Z,3.93
2018-12-05T19:56:59.841Z,3.03
2018-12-05T19:59:40.809Z,2.97
2018-12-05T20:02:19.829Z,3.87
2018-12-05T20:04:58.896Z,4.00
2018-12-05T20:07:32.341Z,3.73
2018-12-05T20:10:04.820Z,3.03
2018-12-05T20:12:36.830Z,2.87
2018-12-05T20:15:09.644Z,2.67
2018-12-05T20:17:48.874Z,3.07
2018-12-05T20:20:25.906Z,3.33
2018-12-05T20:38:04.008Z,3.20
2018-12-05T20:40:36.524Z,2.93
2018-12-05T20:43:09.905Z,4.33
2018-12-05T20:45:44.263Z,3.13
2018-12-05T20:48:23.292Z,3.57
2018-12-05T20:51:02.389Z,3.47
2018-12-05T20:53:37.656Z,3.70
2018-12-05T20:56:11.252Z,3.17
2018-12-05T20:58:45.859Z,3.37
2018-12-05T21:04:31.372Z,3.77
2018-12-05T21:10:07.769Z,2.97
2018-12-05T21:12:44.964Z,2.90
2018-12-05T21:15:18.019Z,3.30
2018-12-05T21:21:07.329Z,2.97
2018-12-05T21:23:37.887Z,2.97
2018-12-05T21:26:16.796Z,3.73
2018-12-05T21:28:49.617Z,4.03
2018-12-05T21:31:37.163Z,3.03
2018-12-05T21:34:12.183Z,3.63
2018-12-05T21:36:45.879Z,3.60
2018-12-05T21:39:21.253Z,3.33
2018-12-05T21:42:00.374Z,3.30
2018-12-05T21:44:32.695Z,2.93
2018-12-05T21:47:05.744Z,3.20
2018-12-05T21:49:38.961Z,3.77
2018-12-05T21:52:14.243Z,3.67
2018-12-05T21:54:55.914Z,3.77
2018-12-05T21:57:26.127Z,2.77
2018-12-05T22:00:06.781Z,3.83
2018-12-05T22:02:37.698Z,4.13
2018-12-05T22:05:10.408Z,2.93
2018-12-05T22:07:45.652Z,5.07
2018-12-05T22:10:17.887Z,3.00
2018-12-05T22:12:52.622Z,2.77
2018-12-05T22:15:23.486Z,3.43
2018-12-05T22:17:55.632Z,4.00
2018-12-05T22:20:26.366Z,4.03
2018-12-05T22:23:00.975Z,2.90
2018-12-05T22:25:33.646Z,2.60
2018-12-05T22:28:05.757Z,3.10
2018-12-05T22:30:40.509Z,3.40
2018-12-05T22:33:15.556Z,2.57
2018-12-05T22:35:47.768Z,3.47
2018-12-05T22:38:19.801Z,2.60
2018-12-05T22:40:50.336Z,2.50
2018-12-05T22:43:22.605Z,3.90
2018-12-05T22:46:03.879Z,2.53
2018-12-05T22:48:38.739Z,2.87
2018-12-05T22:51:13.923Z,2.80
2018-12-05T22:53:49.754Z,2.87
2018-12-05T22:56:24.869Z,3.20
2018-12-05T22:58:59.299Z,2.50
2018-12-05T23:01:31.489Z,2.90
2018-12-05T23:04:03.678Z,2.63
2018-12-05T23:06:42.282Z,2.83
2018-12-05T23:09:17.559Z,3.00
2018-12-05T23:11:52.592Z,3.07
2018-12-05T23:14:27.030Z,3.27
2018-12-05T23:16:57.681Z,3.10
2018-12-05T23:19:32.556Z,2.23
2018-12-05T23:22:05.460Z,2.40
2018-12-05T23:24:40.185Z,3.17
2018-12-05T23:27:12.960Z,1.97
2018-12-05T23:29:45.206Z,3.73
2018-12-05T23:32:26.455Z,2.70
2018-12-05T23:34:58.529Z,2.30
2018-12-05T23:37:37.395Z,2.47
2018-12-05T23:40:10.704Z,2.77
2018-12-05T23:42:43.169Z,1.90
2018-12-05T23:45:16.198Z,2.60
2018-12-05T23:47:48.695Z,2.63
2018-12-05T23:50:21.265Z,3.37
2018-12-05T23:52:55.997Z,2.87
2018-12-05T23:55:30.967Z,2.43
2018-12-05T23:58:03.809Z,4.40
